createdAt,value
2023-05-03T00:02:18.285Z,10.11
2023-05-03T00:04:48.596Z,10.20
2023-05-03T00:07:16.903Z,10.25
2023-05-03T00:09:44.805Z,10.13
2023-05-03T00:12:12.474Z,10.15
2023-05-03T00:14:40.398Z,10.15
2023-05-03T00:17:08.243Z,10.05
2023-05-03T00:19:37.579Z,9.96
2023-05-03T00:22:05.242Z,9.95
2023-05-03T00:24:33.255Z,9.89
2023-05-03T00:27:01.668Z,9.87
2023-05-03T00:29:29.607Z,9.86
2023-05-03T00:31:57.312Z,9.81
2023-05-03T00:34:25.197Z,9.75
2023-05-03T00:36:52.821Z,9.82
2023-05-03T00:39:20.813Z,9.82
2023-05-03T00:41:48.461Z,9.65
2023-05-03T00:44:16.728Z,9.75
2023-05-03T00:46:44.459Z,9.76
2023-05-03T00:49:12.664Z,9.83
2023-05-03T00:51:42.089Z,9.87
2023-05-03T00:54:11.167Z,9.95
2023-05-03T00:56:48.395Z,9.94
2023-05-03T00:59:20.100Z,10.09
2023-05-03T01:01:52.551Z,10.10
2023-05-03T01:04:21.938Z,9.93
2023-05-03T01:06:51.267Z,9.81
2023-05-03T01:09:51.059Z,9.81
2023-05-03T01:12:36.179Z,9.72
2023-05-03T01:15:35.013Z,9.55
2023-05-03T01:18:12.520Z,9.39
2023-05-03T01:20:44.059Z,9.24
2023-05-03T01:23:22.210Z,9.00
2023-05-03T01:25:53.358Z,8.77
2023-05-03T01:28:21.503Z,8.63
2023-05-03T01:30:52.616Z,8.46
2023-05-03T01:33:40.717Z,8.29
2023-05-03T01:36:18.132Z,8.17
2023-05-03T01:38:47.288Z,8.04
2023-05-03T01:41:19.816Z,8.09
2023-05-03T01:43:48.904Z,7.98
2023-05-03T01:46:17.121Z,7.94
2023-05-03T01:48:47.290Z,7.91
2023-05-03T01:51:15.277Z,7.85
2023-05-03T01:53:43.928Z,7.98
2023-05-03T01:56:11.851Z,8.12
2023-05-03T01:58:39.627Z,8.18
2023-05-03T02:01:08.083Z,8.30
2023-05-03T02:03:36.049Z,8.31
2023-05-03T02:06:04.103Z,8.47
2023-05-03T02:08:31.797Z,8.50
2023-05-03T02:11:00.798Z,8.40
2023-05-03T02:13:28.519Z,8.35
2023-05-03T02:15:56.533Z,8.30
2023-05-03T02:18:24.666Z,8.33
2023-05-03T02:20:52.898Z,8.30
2023-05-03T02:23:20.557Z,8.21
2023-05-03T02:25:49.157Z,8.21
2023-05-03T02:28:16.838Z,8.13
2023-05-03T02:30:44.897Z,8.06
2023-05-03T02:33:12.690Z,8.09
2023-05-03T02:35:40.765Z,8.12
2023-05-03T02:38:09.146Z,7.95
2023-05-03T02:40:37.955Z,7.85
2023-05-03T02:43:06.130Z,7.76
2023-05-03T02:45:36.906Z,7.76
2023-05-03T02:48:04.933Z,7.65
2023-05-03T02:50:32.917Z,7.60
2023-05-03T02:53:00.772Z,7.57
2023-05-03T02:55:28.954Z,7.57
2023-05-03T02:57:56.855Z,7.67
2023-05-03T03:00:24.859Z,7.65
2023-05-03T03:02:52.760Z,7.76
2023-05-03T03:05:22.070Z,7.82
2023-05-03T03:07:51.667Z,7.90
2023-05-03T03:10:19.948Z,7.97
2023-05-03T03:12:47.934Z,8.04
2023-05-03T03:15:25.483Z,8.08
2023-05-03T03:17:57.728Z,8.15
2023-05-03T03:20:27.145Z,8.18
2023-05-03T03:22:55.178Z,8.22
2023-05-03T03:25:23.337Z,8.29
2023-05-03T03:27:51.080Z,8.32
2023-05-03T03:30:19.151Z,8.52
2023-05-03T03:32:57.110Z,8.59
2023-05-03T03:35:33.537Z,8.52
2023-05-03T03:38:02.078Z,8.43
2023-05-03T03:40:30.376Z,8.55
2023-05-03T03:42:58.865Z,8.58
2023-05-03T03:45:27.683Z,8.68
2023-05-03T03:47:58.194Z,8.83
2023-05-03T03:50:27.100Z,8.90
2023-05-03T03:52:54.798Z,8.96
2023-05-03T03:55:23.362Z,8.93
2023-05-03T03:57:54.098Z,9.04
2023-05-03T04:00:23.077Z,8.94
2023-05-03T04:02:59.770Z,9.09
2023-05-03T04:05:27.857Z,9.14
2023-05-03T04:07:55.641Z,9.23
2023-05-03T04:10:24.579Z,9.50
2023-05-03T04:12:52.195Z,9.42
2023-05-03T04:15:20.457Z,9.50
2023-05-03T04:17:49.575Z,9.48
2023-05-03T04:20:18.243Z,9.56
2023-05-03T04:22:49.235Z,9.79
2023-05-03T04:25:19.692Z,9.99
2023-05-03T04:27:56.885Z,10.00
2023-05-03T04:30:26.462Z,10.17
2023-05-03T04:32:59.589Z,10.40
2023-05-03T04:35:29.411Z,10.55
2023-05-03T04:37:59.012Z,10.83
2023-05-03T04:40:29.230Z,10.75
2023-05-03T04:43:05.469Z,11.06
2023-05-03T04:45:37.184Z,11.50
2023-05-03T04:48:05.632Z,12.21
2023-05-03T04:50:34.634Z,12.48
2023-05-03T04:53:03.996Z,12.68
2023-05-03T04:55:35.341Z,12.65
2023-05-03T04:58:05.362Z,13.00
2023-05-03T05:00:34.635Z,13.21
2023-05-03T05:03:09.216Z,13.46
2023-05-03T05:05:37.355Z,13.87
2023-05-03T05:08:05.348Z,14.80
2023-05-03T05:10:43.357Z,16.95
2023-05-03T05:13:15.979Z,15.70
2023-05-03T05:15:44.213Z,15.66
2023-05-03T05:18:13.856Z,15.77
2023-05-03T05:20:43.193Z,16.72
2023-05-03T05:23:12.266Z,17.17
2023-05-03T05:25:43.413Z,20.63
2023-05-03T05:28:11.543Z,20.15
2023-05-03T05:30:41.529Z,20.23
2023-05-03T05:33:09.693Z,20.13
2023-05-03T05:35:38.627Z,18.96
2023-05-03T05:38:06.395Z,17.24
2023-05-03T05:40:36.472Z,16.00
2023-05-03T05:43:04.999Z,14.91
2023-05-03T05:45:37.002Z,15.25
2023-05-03T05:48:06.410Z,17.04
2023-05-03T05:50:35.667Z,18.15
2023-05-03T05:53:09.749Z,18.43
2023-05-03T05:55:42.076Z,20.00
2023-05-03T05:58:13.056Z,18.69
2023-05-03T06:00:49.042Z,19.63
2023-05-03T06:03:17.865Z,22.08
2023-05-03T06:05:49.950Z,21.78
2023-05-03T06:08:17.634Z,22.08
2023-05-03T06:10:45.820Z,20.60
2023-05-03T06:13:13.848Z,19.18
2023-05-03T06:15:42.288Z,19.20
2023-05-03T06:18:10.157Z,18.43
2023-05-03T06:20:38.290Z,17.93
2023-05-03T06:23:06.411Z,17.74
2023-05-03T06:25:38.797Z,17.85
2023-05-03T06:28:07.168Z,17.66
2023-05-03T06:30:36.810Z,17.57
2023-05-03T06:33:13.605Z,18.06
2023-05-03T06:35:43.068Z,19.82
2023-05-03T06:38:12.117Z,20.51
2023-05-03T06:40:41.439Z,20.54
2023-05-03T06:43:09.109Z,19.66
2023-05-03T06:45:43.927Z,20.20
2023-05-03T06:48:11.686Z,21.05
2023-05-03T06:50:40.016Z,22.08
2023-05-03T06:53:07.767Z,22.94
2023-05-03T06:55:35.724Z,23.89
2023-05-03T06:58:03.549Z,24.68
2023-05-03T07:00:31.557Z,25.08
2023-05-03T07:02:59.394Z,25.55
2023-05-03T07:05:27.561Z,25.82
2023-05-03T07:07:55.208Z,26.64
2023-05-03T07:10:23.231Z,27.30
2023-05-03T07:12:51.428Z,26.97
2023-05-03T07:15:19.300Z,27.68
2023-05-03T07:17:47.029Z,28.88
2023-05-03T07:20:15.065Z,29.02
2023-05-03T07:22:42.705Z,28.93
2023-05-03T07:25:12.344Z,27.39
2023-05-03T07:27:40.131Z,28.34
2023-05-03T07:30:08.672Z,29.02
2023-05-03T07:32:36.498Z,29.35
2023-05-03T07:35:05.186Z,29.68
2023-05-03T07:37:32.798Z,28.95
2023-05-03T07:40:00.937Z,29.24
2023-05-03T07:42:28.766Z,29.04
2023-05-03T07:44:56.783Z,28.76
2023-05-03T07:47:24.717Z,29.71
2023-05-03T07:49:52.694Z,31.21
2023-05-03T07:52:20.852Z,32.00
2023-05-03T07:54:48.837Z,31.41
2023-05-03T07:57:16.790Z,31.40
2023-05-03T07:59:44.850Z,31.19
2023-05-03T08:02:12.638Z,29.77
2023-05-03T08:04:41.339Z,29.71
2023-05-03T08:07:09.717Z,29.84
2023-05-03T08:09:37.690Z,30.64
2023-05-03T08:12:05.729Z,29.34
2023-05-03T08:14:34.006Z,29.53
2023-05-03T08:17:01.737Z,30.00
2023-05-03T08:19:29.715Z,31.64
2023-05-03T08:21:58.528Z,29.76
2023-05-03T08:24:27.057Z,26.10
2023-05-03T08:26:55.605Z,23.78
2023-05-03T08:29:24.361Z,22.70
2023-05-03T08:31:53.602Z,22.72
2023-05-03T08:34:22.080Z,25.16
2023-05-03T08:36:49.847Z,26.69
2023-05-03T08:39:18.886Z,28.81
2023-05-03T08:41:47.138Z,28.48
2023-05-03T08:44:22.516Z,29.33
2023-05-03T08:46:53.575Z,28.80
2023-05-03T08:49:22.579Z,29.52
2023-05-03T08:51:51.519Z,28.77
2023-05-03T08:54:21.349Z,29.02
2023-05-03T08:56:49.749Z,29.75
2023-05-03T08:59:17.894Z,29.58
2023-05-03T09:01:45.906Z,30.19
2023-05-03T09:04:14.234Z,29.61
2023-05-03T09:06:42.331Z,29.04
2023-05-03T09:09:11.117Z,28.78
2023-05-03T09:11:39.939Z,28.43
2023-05-03T09:14:16.249Z,26.98
2023-05-03T09:16:46.709Z,27.31
2023-05-03T09:19:16.339Z,28.02
2023-05-03T09:21:49.529Z,27.00
2023-05-03T09:24:19.880Z,28.27
2023-05-03T09:26:50.264Z,28.65
2023-05-03T09:29:48.537Z,24.44
2023-05-03T09:32:17.626Z,23.81
2023-05-03T09:34:46.240Z,25.05
2023-05-03T09:37:14.714Z,26.61
2023-05-03T09:39:45.127Z,27.79
2023-05-03T09:42:18.897Z,29.01
2023-05-03T09:44:48.998Z,28.14
2023-05-03T09:47:17.540Z,26.28
2023-05-03T09:49:45.841Z,23.74
2023-05-03T09:52:13.776Z,21.37
2023-05-03T09:54:43.807Z,19.49
2023-05-03T09:57:14.898Z,20.17
2023-05-03T09:59:47.062Z,22.53
2023-05-03T10:02:16.491Z,23.85
2023-05-03T10:04:51.659Z,24.47
2023-05-03T10:07:22.850Z,23.85
2023-05-03T10:09:51.130Z,21.14
2023-05-03T10:12:20.548Z,19.91
2023-05-03T10:14:51.582Z,20.16
2023-05-03T10:17:46.929Z,19.73
2023-05-03T10:20:27.502Z,19.54
2023-05-03T10:23:11.702Z,18.46
2023-05-03T10:26:00.703Z,16.92
2023-05-03T10:28:28.824Z,16.76
2023-05-03T10:30:57.092Z,16.63
2023-05-03T10:33:37.423Z,17.20
2023-05-03T10:36:07.610Z,17.29
2023-05-03T10:38:36.870Z,17.36
2023-05-03T10:41:07.254Z,17.33
2023-05-03T10:43:37.786Z,17.94
2023-05-03T10:46:09.090Z,17.92
2023-05-03T10:48:36.819Z,17.59
2023-05-03T10:51:30.800Z,17.14
2023-05-03T10:53:58.737Z,17.54
2023-05-03T10:56:26.764Z,17.83
2023-05-03T10:58:56.654Z,17.29
2023-05-03T11:01:27.255Z,17.46
2023-05-03T11:04:00.475Z,17.91
2023-05-03T11:06:36.958Z,17.96
2023-05-03T11:09:07.409Z,17.91
2023-05-03T11:11:39.568Z,18.02
2023-05-03T11:14:11.620Z,18.26
2023-05-03T11:16:47.726Z,18.29
2023-05-03T11:19:16.570Z,17.49
2023-05-03T11:21:46.322Z,16.73
2023-05-03T11:24:14.651Z,16.62
2023-05-03T11:26:42.565Z,16.43
2023-05-03T11:29:14.042Z,16.12
2023-05-03T11:31:43.396Z,16.57
2023-05-03T11:34:12.999Z,16.94
2023-05-03T11:36:42.450Z,16.96
2023-05-03T11:39:13.171Z,16.75
2023-05-03T11:41:42.418Z,16.91
2023-05-03T11:44:17.307Z,17.04
2023-05-03T11:46:47.619Z,17.72
2023-05-03T11:49:19.750Z,17.97
2023-05-03T11:51:50.975Z,18.31
2023-05-03T11:54:25.922Z,18.64
2023-05-03T11:56:59.738Z,18.90
2023-05-03T11:59:40.739Z,18.86
2023-05-03T12:02:13.102Z,17.76
2023-05-03T12:04:43.517Z,17.41
2023-05-03T12:07:15.212Z,17.33
2023-05-03T12:09:53.240Z,17.37
2023-05-03T12:12:32.168Z,16.97
2023-05-03T12:15:04.317Z,16.73
2023-05-03T12:17:44.018Z,16.95
2023-05-03T12:22:56.245Z,17.32
2023-05-03T12:25:27.287Z,17.30
2023-05-03T12:28:17.791Z,16.98
2023-05-03T12:30:47.723Z,16.56
2023-05-03T12:33:17.066Z,16.53
2023-05-03T12:35:47.849Z,16.46
2023-05-03T12:38:17.789Z,16.40
2023-05-03T12:40:47.336Z,16.53
2023-05-03T12:43:16.284Z,16.48
2023-05-03T12:45:48.642Z,16.68
2023-05-03T12:48:25.054Z,16.43
2023-05-03T12:51:05.070Z,16.28
2023-05-03T12:53:46.896Z,16.03
2023-05-03T12:56:15.481Z,15.93
2023-05-03T12:59:07.611Z,15.89
2023-05-03T13:06:42.119Z,15.64
2023-05-03T13:09:19.249Z,15.72
2023-05-03T13:11:52.835Z,15.46
2023-05-03T13:14:21.941Z,15.21
2023-05-03T13:16:49.955Z,14.95
2023-05-03T13:19:18.208Z,14.88
2023-05-03T13:21:48.497Z,14.54
2023-05-03T13:24:16.824Z,14.48
2023-05-03T13:26:44.563Z,14.40
2023-05-03T13:29:12.576Z,14.26
2023-05-03T13:31:40.442Z,14.48
2023-05-03T13:34:08.411Z,14.72
2023-05-03T13:36:36.147Z,14.69
2023-05-03T13:39:04.182Z,14.51
2023-05-03T13:41:32.538Z,14.50
2023-05-03T13:44:00.863Z,14.39
2023-05-03T13:46:28.694Z,14.76
2023-05-03T13:48:56.804Z,14.91
2023-05-03T13:51:25.687Z,15.06
2023-05-03T13:53:54.086Z,14.86
2023-05-03T13:56:21.984Z,14.74
2023-05-03T13:58:49.889Z,14.62
2023-05-03T14:01:18.053Z,14.82
2023-05-03T14:03:46.321Z,14.64
2023-05-03T14:06:14.235Z,14.37
2023-05-03T14:08:42.210Z,14.45
2023-05-03T14:11:21.762Z,14.35
2023-05-03T14:13:56.915Z,14.37
2023-05-03T14:16:40.025Z,14.51
2023-05-03T14:19:12.916Z,14.48
2023-05-03T14:21:45.394Z,14.85
2023-05-03T14:24:14.225Z,14.92
2023-05-03T14:26:42.156Z,14.84
2023-05-03T14:29:10.149Z,14.78
2023-05-03T14:31:37.893Z,14.82
2023-05-03T14:34:06.372Z,14.72
2023-05-03T14:36:38.767Z,14.70
2023-05-03T14:39:06.967Z,14.83
2023-05-03T14:41:34.962Z,14.89
2023-05-03T14:44:03.431Z,14.89
2023-05-03T14:46:31.280Z,14.86
2023-05-03T14:48:59.805Z,15.16
2023-05-03T14:51:28.048Z,15.17
2023-05-03T14:53:56.066Z,15.03
2023-05-03T14:56:23.854Z,14.97
2023-05-03T14:58:51.930Z,14.88
2023-05-03T15:01:23.725Z,14.66
2023-05-03T15:03:52.382Z,14.60
2023-05-03T15:06:33.055Z,14.60
2023-05-03T15:09:01.094Z,14.86
2023-05-03T15:11:28.872Z,15.19
2023-05-03T15:13:56.986Z,15.56
2023-05-03T15:16:24.918Z,15.93
2023-05-03T15:18:53.145Z,16.04
2023-05-03T15:21:21.279Z,16.11
2023-05-03T15:23:49.723Z,16.07
2023-05-03T15:26:17.546Z,16.25
2023-05-03T15:28:45.774Z,16.43
2023-05-03T15:31:14.921Z,16.27
2023-05-03T15:33:44.592Z,16.16
2023-05-03T15:36:13.714Z,15.97
2023-05-03T15:38:41.679Z,15.90
2023-05-03T15:41:09.435Z,16.03
2023-05-03T15:43:37.705Z,16.04
2023-05-03T15:46:05.682Z,15.68
2023-05-03T15:48:33.904Z,15.46
2023-05-03T15:51:01.718Z,15.34
2023-05-03T15:53:30.001Z,15.30
2023-05-03T15:55:58.249Z,15.32
2023-05-03T15:58:30.572Z,15.53
2023-05-03T16:00:59.436Z,15.53
2023-05-03T16:03:28.709Z,15.49
2023-05-03T16:05:57.301Z,15.51
2023-05-03T16:08:26.334Z,15.24
2023-05-03T16:10:53.992Z,15.41
2023-05-03T16:13:22.177Z,15.42
2023-05-03T16:15:52.546Z,15.38
2023-05-03T16:18:20.851Z,15.43
2023-05-03T16:20:49.583Z,15.39
2023-05-03T16:23:17.574Z,15.15
2023-05-03T16:25:45.414Z,14.80
2023-05-03T16:28:13.564Z,14.62
2023-05-03T16:30:41.206Z,14.44
2023-05-03T16:33:10.388Z,14.37
2023-05-03T16:35:38.186Z,14.28
2023-05-03T16:38:07.334Z,14.12
2023-05-03T16:40:35.084Z,14.09
2023-05-03T16:43:03.083Z,14.07
2023-05-03T16:45:30.745Z,14.01
2023-05-03T16:47:58.704Z,14.06
2023-05-03T16:50:26.481Z,14.01
2023-05-03T16:52:54.660Z,13.86
2023-05-03T16:55:23.196Z,13.61
2023-05-03T16:57:51.259Z,13.44
2023-05-03T17:00:20.927Z,13.41
2023-05-03T17:02:49.205Z,13.26
2023-05-03T17:05:17.012Z,13.25
2023-05-03T17:07:46.093Z,13.17
2023-05-03T17:10:13.731Z,12.97
2023-05-03T17:12:41.933Z,13.02
2023-05-03T17:17:38.228Z,12.93
2023-05-03T17:20:07.358Z,12.90
2023-05-03T17:22:36.129Z,12.84
2023-05-03T17:25:04.139Z,12.67
2023-05-03T17:27:32.227Z,12.65
2023-05-03T17:30:00.189Z,12.45
2023-05-03T17:32:28.171Z,12.36
2023-05-03T17:34:56.902Z,12.19
2023-05-03T17:37:25.346Z,12.07
2023-05-03T17:39:53.071Z,12.20
2023-05-03T17:42:21.034Z,12.16
2023-05-03T17:44:54.804Z,12.02
2023-05-03T17:47:25.134Z,11.84
2023-05-03T17:49:53.044Z,11.56
2023-05-03T17:52:21.112Z,11.31
2023-05-03T17:54:52.093Z,11.20
2023-05-03T17:57:23.174Z,11.10
2023-05-03T17:59:51.811Z,10.96
2023-05-03T18:02:21.258Z,10.81
2023-05-03T18:04:49.279Z,10.63
2023-05-03T18:07:17.246Z,10.55
2023-05-03T18:09:44.882Z,10.31
2023-05-03T18:12:14.305Z,10.08
2023-05-03T18:14:41.978Z,9.89
2023-05-03T18:17:09.877Z,9.66
2023-05-03T18:19:37.576Z,9.52
2023-05-03T18:22:06.574Z,9.39
2023-05-03T18:24:34.248Z,9.21
2023-05-03T18:27:02.538Z,9.08
2023-05-03T18:29:30.166Z,8.94
2023-05-03T18:31:58.561Z,8.89
2023-05-03T18:34:29.691Z,8.71
2023-05-03T18:36:57.617Z,8.73
2023-05-03T18:39:25.864Z,8.54
2023-05-03T18:41:53.507Z,8.39
2023-05-03T18:44:24.080Z,8.35
2023-05-03T18:46:52.477Z,8.25
2023-05-03T18:49:23.608Z,8.15
2023-05-03T18:51:51.339Z,8.01
2023-05-03T18:54:20.400Z,7.85
2023-05-03T18:56:48.320Z,7.74
2023-05-03T18:59:16.240Z,7.73
2023-05-03T19:01:44.289Z,7.60
2023-05-03T19:04:14.720Z,7.48
2023-05-03T19:06:42.557Z,7.40
2023-05-03T19:09:11.877Z,7.29
2023-05-03T19:11:42.804Z,7.17
2023-05-03T19:14:10.860Z,7.05
2023-05-03T19:16:38.816Z,7.00
2023-05-03T19:19:07.274Z,6.98
2023-05-03T19:21:37.762Z,6.91
2023-05-03T19:24:06.734Z,6.79
2023-05-03T19:26:34.349Z,6.70
2023-05-03T19:29:02.339Z,6.62
2023-05-03T19:31:30.490Z,6.54
2023-05-03T19:33:58.607Z,6.46
2023-05-03T19:36:27.551Z,6.51
2023-05-03T19:38:55.517Z,6.45
2023-05-03T19:41:23.176Z,6.30
2023-05-03T19:43:57.659Z,6.25
2023-05-03T19:46:25.441Z,6.20
2023-05-03T19:48:53.359Z,6.16
2023-05-03T19:51:21.182Z,6.15
2023-05-03T19:53:49.225Z,6.02
2023-05-03T19:56:18.444Z,5.98
2023-05-03T19:58:46.417Z,5.92
2023-05-03T20:01:14.494Z,5.81
2023-05-03T20:03:42.609Z,5.77
2023-05-03T20:06:11.161Z,5.66
2023-05-03T20:08:39.067Z,5.60
2023-05-03T20:11:07.199Z,5.52
2023-05-03T20:13:34.900Z,5.47
2023-05-03T20:16:04.992Z,5.46
2023-05-03T20:18:32.798Z,5.39
2023-05-03T20:21:00.713Z,5.43
2023-05-03T20:23:28.550Z,5.45
2023-05-03T20:25:56.234Z,5.39
2023-05-03T20:28:24.455Z,5.25
2023-05-03T20:30:52.528Z,5.18
2023-05-03T20:33:20.538Z,5.13
2023-05-03T20:35:48.501Z,5.10
2023-05-03T20:38:16.455Z,5.07
2023-05-03T20:40:44.067Z,5.04
2023-05-03T20:43:12.131Z,4.98
2023-05-03T20:45:39.781Z,4.96
2023-05-03T20:48:08.073Z,4.84
2023-05-03T20:50:35.922Z,4.78
2023-05-03T20:53:04.057Z,4.70
2023-05-03T20:55:31.808Z,4.63
2023-05-03T20:57:59.817Z,4.61
2023-05-03T21:00:27.682Z,4.54
2023-05-03T21:02:55.709Z,4.59
2023-05-03T21:05:23.638Z,4.48
2023-05-03T21:07:52.458Z,4.43
2023-05-03T21:10:20.249Z,4.35
2023-05-03T21:12:48.156Z,4.44
2023-05-03T21:15:15.922Z,4.27
2023-05-03T21:17:43.939Z,4.18
2023-05-03T21:20:12.057Z,4.06
2023-05-03T21:22:40.020Z,4.01
2023-05-03T21:25:08.413Z,4.09
2023-05-03T21:27:36.379Z,4.05
2023-05-03T21:30:04.473Z,3.95
2023-05-03T21:32:33.394Z,4.20
2023-05-03T21:35:01.120Z,4.03
2023-05-03T21:37:29.069Z,3.95
2023-05-03T21:40:05.342Z,3.81
2023-05-03T21:42:33.465Z,3.74
2023-05-03T21:45:01.568Z,3.68
2023-05-03T21:47:30.710Z,3.68
2023-05-03T21:49:59.178Z,3.63
2023-05-03T21:52:27.326Z,3.66
2023-05-03T21:54:55.116Z,3.59
2023-05-03T21:57:23.089Z,3.57
2023-05-03T21:59:51.220Z,3.54
2023-05-03T22:02:19.498Z,3.49
2023-05-03T22:04:48.715Z,3.44
2023-05-03T22:07:17.144Z,3.42
2023-05-03T22:09:48.766Z,3.37
2023-05-03T22:12:24.121Z,3.36
2023-05-03T22:14:53.016Z,3.41
2023-05-03T22:17:21.166Z,3.40
2023-05-03T22:19:48.910Z,3.37
2023-05-03T22:22:17.190Z,3.33
2023-05-03T22:24:44.805Z,3.35
2023-05-03T22:27:13.041Z,3.44
2023-05-03T22:29:40.699Z,3.39
2023-05-03T22:32:08.833Z,3.39
2023-05-03T22:34:36.501Z,3.37
2023-05-03T22:37:04.574Z,3.26
2023-05-03T22:39:32.385Z,3.19
2023-05-03T22:42:00.866Z,3.10
2023-05-03T22:44:28.630Z,3.02
2023-05-03T22:46:56.678Z,3.02
2023-05-03T22:49:24.722Z,3.33
2023-05-03T22:51:52.616Z,3.72
2023-05-03T22:54:21.870Z,3.29
2023-05-03T22:56:51.363Z,3.13
2023-05-03T22:59:19.189Z,3.04
2023-05-03T23:01:49.393Z,3.00
2023-05-03T23:04:17.395Z,2.90
2023-05-03T23:06:45.382Z,2.77
2023-05-03T23:09:13.118Z,2.68
2023-05-03T23:11:41.115Z,2.60
2023-05-03T23:14:08.750Z,2.54
2023-05-03T23:16:37.079Z,2.49
2023-05-03T23:19:04.825Z,2.46
2023-05-03T23:21:32.744Z,2.51
2023-05-03T23:24:00.459Z,2.41
2023-05-03T23:26:28.376Z,2.38
2023-05-03T23:28:56.507Z,2.42
2023-05-03T23:31:25.151Z,2.45
2023-05-03T23:33:53.315Z,2.37
2023-05-03T23:36:21.223Z,2.31
2023-05-03T23:38:50.736Z,2.31
2023-05-03T23:41:18.972Z,2.16
2023-05-03T23:43:46.605Z,2.30
2023-05-03T23:46:14.671Z,2.24
2023-05-03T23:48:42.332Z,2.12
2023-05-03T23:51:10.639Z,2.03
2023-05-03T23:53:38.316Z,1.95
2023-05-03T23:56:06.614Z,1.96
2023-05-03T23:58:34.309Z,1.94
